sensor_id;sensor_type;location;lat;lon;timestamp;temperature;humidity
13433;DHT22;6789;47.678;9.158;2023-03-12T00:02:13;5.10;99.90
13433;DHT22;6789;47.678;9.158;2023-03-12T00:07:24;5.10;99.90
13433;DHT22;6789;47.678;9.158;2023-03-12T00:12:30;5.10;99.90
13433;DHT22;6789;47.678;9.158;2023-03-12T00:17:56;5.00;99.90
13433;DHT22;6789;47.678;9.158;2023-03-12T00:23:30;5.00;99.90
13433;DHT22;6789;47.678;9.158;2023-03-12T00:28:40;5.00;99.90
13433;DHT22;6789;47.678;9.158;2023-03-12T00:33:47;5.10;99.90
13433;DHT22;6789;47.678;9.158;2023-03-12T00:39:08;5.10;99.90
13433;DHT22;6789;47.678;9.158;2023-03-12T00:44:16;5.10;99.90
13433;DHT22;6789;47.678;9.158;2023-03-12T00:49:44;5.10;99.90
13433;DHT22;6789;47.678;9.158;2023-03-12T00:54:57;5.20;99.90
13433;DHT22;6789;47.678;9.158;2023-03-12T01:00:04;5.20;99.90
13433;DHT22;6789;47.678;9.158;2023-03-12T01:05:24;5.20;99.90
13433;DHT22;6789;47.678;9.158;2023-03-12T01:10:41;5.20;99.90
13433;DHT22;6789;47.678;9.158;2023-03-12T01:15:52;5.20;99.90
13433;DHT22;6789;47.678;9.158;2023-03-12T01:20:57;5.20;99.90
13433;DHT22;6789;47.678;9.158;2023-03-12T01:26:04;5.20;99.90
13433;DHT22;6789;47.678;9.158;2023-03-12T01:31:19;5.30;99.90
13433;DHT22;6789;47.678;9.158;2023-03-12T01:36:39;5.30;99.90
13433;DHT22;6789;47.678;9.158;2023-03-12T01:41:52;5.30;99.90
13433;DHT22;6789;47.678;9.158;2023-03-12T01:47:10;5.30;99.90
13433;DHT22;6789;47.678;9.158;2023-03-12T01:52:24;5.30;99.90
13433;DHT22;6789;47.678;9.158;2023-03-12T01:57:43;5.30;99.90
13433;DHT22;6789;47.678;9.158;2023-03-12T02:02:57;5.30;99.90
13433;DHT22;6789;47.678;9.158;2023-03-12T02:08:38;5.30;99.90
13433;DHT22;6789;47.678;9.158;2023-03-12T02:14:10;5.30;99.90
13433;DHT22;6789;47.678;9.158;2023-03-12T02:25:29;5.30;99.90
13433;DHT22;6789;47.678;9.158;2023-03-12T02:30:58;5.30;99.90
13433;DHT22;6789;47.678;9.158;2023-03-12T02:36:21;5.40;99.90
13433;DHT22;6789;47.678;9.158;2023-03-12T02:41:33;5.40;99.90
13433;DHT22;6789;47.678;9.158;2023-03-12T02:46:33;5.30;99.90
13433;DHT22;6789;47.678;9.158;2023-03-12T02:51:28;5.30;99.90
13433;DHT22;6789;47.678;9.158;2023-03-12T02:56:25;5.30;99.90
13433;DHT22;6789;47.678;9.158;2023-03-12T03:01:18;5.30;99.90
13433;DHT22;6789;47.678;9.158;2023-03-12T03:06:11;5.40;99.90
13433;DHT22;6789;47.678;9.158;2023-03-12T03:11:04;5.40;99.90
13433;DHT22;6789;47.678;9.158;2023-03-12T03:15:58;5.30;99.90
13433;DHT22;6789;47.678;9.158;2023-03-12T03:21:11;5.40;99.90
13433;DHT22;6789;47.678;9.158;2023-03-12T03:26:07;5.50;99.90
13433;DHT22;6789;47.678;9.158;2023-03-12T03:30:58;5.40;99.90
13433;DHT22;6789;47.678;9.158;2023-03-12T03:35:52;5.40;99.90
13433;DHT22;6789;47.678;9.158;2023-03-12T03:40:45;5.40;99.90
13433;DHT22;6789;47.678;9.158;2023-03-12T03:45:37;5.40;99.90
13433;DHT22;6789;47.678;9.158;2023-03-12T03:50:29;5.60;99.90
13433;DHT22;6789;47.678;9.158;2023-03-12T03:55:20;5.50;99.90
13433;DHT22;6789;47.678;9.158;2023-03-12T04:00:14;5.60;99.90
13433;DHT22;6789;47.678;9.158;2023-03-12T04:05:08;5.60;99.90
13433;DHT22;6789;47.678;9.158;2023-03-12T04:10:01;5.60;99.90
13433;DHT22;6789;47.678;9.158;2023-03-12T04:14:55;5.60;99.90
13433;DHT22;6789;47.678;9.158;2023-03-12T04:19:47;5.60;99.90
13433;DHT22;6789;47.678;9.158;2023-03-12T04:24:38;5.50;99.90
13433;DHT22;6789;47.678;9.158;2023-03-12T04:29:30;5.60;99.90
13433;DHT22;6789;47.678;9.158;2023-03-12T04:34:22;5.60;99.90
13433;DHT22;6789;47.678;9.158;2023-03-12T04:39:18;5.70;99.90
13433;DHT22;6789;47.678;9.158;2023-03-12T04:44:11;5.60;99.90
13433;DHT22;6789;47.678;9.158;2023-03-12T04:49:03;5.60;99.90
13433;DHT22;6789;47.678;9.158;2023-03-12T04:53:56;5.60;99.90
13433;DHT22;6789;47.678;9.158;2023-03-12T04:59:05;5.60;99.90
13433;DHT22;6789;47.678;9.158;2023-03-12T05:04:13;5.70;99.90
13433;DHT22;6789;47.678;9.158;2023-03-12T05:09:05;5.70;99.90
13433;DHT22;6789;47.678;9.158;2023-03-12T05:13:57;5.70;99.90
13433;DHT22;6789;47.678;9.158;2023-03-12T05:18:49;5.70;99.90
13433;DHT22;6789;47.678;9.158;2023-03-12T05:23:40;5.70;99.90
13433;DHT22;6789;47.678;9.158;2023-03-12T05:28:33;5.80;99.90
13433;DHT22;6789;47.678;9.158;2023-03-12T05:33:26;5.80;99.90
13433;DHT22;6789;47.678;9.158;2023-03-12T05:38:19;5.70;99.90
13433;DHT22;6789;47.678;9.158;2023-03-12T05:43:35;5.70;99.90
13433;DHT22;6789;47.678;9.158;2023-03-12T05:48:27;5.70;99.90
13433;DHT22;6789;47.678;9.158;2023-03-12T05:53:19;5.80;99.90
13433;DHT22;6789;47.678;9.158;2023-03-12T05:58:11;5.80;99.90
13433;DHT22;6789;47.678;9.158;2023-03-12T06:03:04;5.80;99.90
13433;DHT22;6789;47.678;9.158;2023-03-12T06:07:55;5.80;99.90
13433;DHT22;6789;47.678;9.158;2023-03-12T06:13:01;5.70;99.90
13433;DHT22;6789;47.678;9.158;2023-03-12T06:17:53;5.60;99.90
13433;DHT22;6789;47.678;9.158;2023-03-12T06:22:45;5.80;99.90
13433;DHT22;6789;47.678;9.158;2023-03-12T06:27:37;5.70;99.90
13433;DHT22;6789;47.678;9.158;2023-03-12T06:32:28;5.70;99.90
13433;DHT22;6789;47.678;9.158;2023-03-12T06:37:20;5.80;99.90
13433;DHT22;6789;47.678;9.158;2023-03-12T06:42:12;5.90;99.90
13433;DHT22;6789;47.678;9.158;2023-03-12T06:47:06;5.90;99.90
13433;DHT22;6789;47.678;9.158;2023-03-12T06:51:59;6.00;99.90
13433;DHT22;6789;47.678;9.158;2023-03-12T06:57:07;6.10;99.90
13433;DHT22;6789;47.678;9.158;2023-03-12T07:02:38;6.00;99.90
13433;DHT22;6789;47.678;9.158;2023-03-12T07:08:14;5.90;99.90
13433;DHT22;6789;47.678;9.158;2023-03-12T07:13:07;6.00;99.90
13433;DHT22;6789;47.678;9.158;2023-03-12T07:18:00;6.00;99.90
13433;DHT22;6789;47.678;9.158;2023-03-12T07:22:54;6.10;99.90
13433;DHT22;6789;47.678;9.158;2023-03-12T07:28:00;6.20;99.90
13433;DHT22;6789;47.678;9.158;2023-03-12T07:33:10;6.30;99.90
13433;DHT22;6789;47.678;9.158;2023-03-12T07:38:10;6.10;99.90
13433;DHT22;6789;47.678;9.158;2023-03-12T07:43:03;6.40;99.90
13433;DHT22;6789;47.678;9.158;2023-03-12T07:48:39;6.60;99.90
13433;DHT22;6789;47.678;9.158;2023-03-12T07:53:34;6.90;99.90
13433;DHT22;6789;47.678;9.158;2023-03-12T07:58:26;7.10;99.90
13433;DHT22;6789;47.678;9.158;2023-03-12T08:03:48;7.30;99.90
13433;DHT22;6789;47.678;9.158;2023-03-12T08:09:07;7.30;99.90
13433;DHT22;6789;47.678;9.158;2023-03-12T08:14:40;7.50;99.90
13433;DHT22;6789;47.678;9.158;2023-03-12T08:19:38;7.80;99.90
13433;DHT22;6789;47.678;9.158;2023-03-12T08:24:30;8.30;99.90
13433;DHT22;6789;47.678;9.158;2023-03-12T08:29:48;8.60;99.90
13433;DHT22;6789;47.678;9.158;2023-03-12T08:35:06;8.90;99.90
13433;DHT22;6789;47.678;9.158;2023-03-12T08:40:14;8.70;99.90
13433;DHT22;6789;47.678;9.158;2023-03-12T08:45:08;8.70;99.90
13433;DHT22;6789;47.678;9.158;2023-03-12T08:50:15;8.70;99.90
13433;DHT22;6789;47.678;9.158;2023-03-12T08:55:10;8.70;99.90
13433;DHT22;6789;47.678;9.158;2023-03-12T09:00:05;8.60;99.90
13433;DHT22;6789;47.678;9.158;2023-03-12T09:05:03;8.60;99.90
13433;DHT22;6789;47.678;9.158;2023-03-12T09:09:55;8.80;99.90
13433;DHT22;6789;47.678;9.158;2023-03-12T09:14:47;8.60;99.90
13433;DHT22;6789;47.678;9.158;2023-03-12T09:19:54;8.70;99.90
13433;DHT22;6789;47.678;9.158;2023-03-12T09:24:47;8.90;99.90
13433;DHT22;6789;47.678;9.158;2023-03-12T09:29:42;9.00;99.90
13433;DHT22;6789;47.678;9.158;2023-03-12T09:34:48;9.20;99.90
13433;DHT22;6789;47.678;9.158;2023-03-12T09:39:40;9.40;99.90
13433;DHT22;6789;47.678;9.158;2023-03-12T09:44:47;9.60;99.90
13433;DHT22;6789;47.678;9.158;2023-03-12T09:50:05;9.70;99.90
13433;DHT22;6789;47.678;9.158;2023-03-12T09:55:24;9.60;99.90
13433;DHT22;6789;47.678;9.158;2023-03-12T10:00:21;9.70;99.90
13433;DHT22;6789;47.678;9.158;2023-03-12T10:05:59;9.60;99.90
13433;DHT22;6789;47.678;9.158;2023-03-12T10:11:13;9.50;99.90
13433;DHT22;6789;47.678;9.158;2023-03-12T10:22:47;9.70;99.90
13433;DHT22;6789;47.678;9.158;2023-03-12T10:27:21;9.30;99.90
13433;DHT22;6789;47.678;9.158;2023-03-12T10:32:26;9.20;99.90
13433;DHT22;6789;47.678;9.158;2023-03-12T10:37:35;9.20;99.90
13433;DHT22;6789;47.678;9.158;2023-03-12T10:42:31;9.30;99.90
13433;DHT22;6789;47.678;9.158;2023-03-12T10:52:27;9.50;99.90
13433;DHT22;6789;47.678;9.158;2023-03-12T10:57:19;9.40;99.90
13433;DHT22;6789;47.678;9.158;2023-03-12T11:02:32;9.60;99.90
13433;DHT22;6789;47.678;9.158;2023-03-12T11:07:42;9.70;99.90
13433;DHT22;6789;47.678;9.158;2023-03-12T11:12:38;9.90;99.90
13433;DHT22;6789;47.678;9.158;2023-03-12T11:17:44;9.90;99.90
13433;DHT22;6789;47.678;9.158;2023-03-12T11:22:50;10.00;99.90
13433;DHT22;6789;47.678;9.158;2023-03-12T11:28:00;10.00;99.90
13433;DHT22;6789;47.678;9.158;2023-03-12T11:33:02;10.10;99.90
13433;DHT22;6789;47.678;9.158;2023-03-12T11:49:18;10.30;99.90
13433;DHT22;6789;47.678;9.158;2023-03-12T11:54:27;10.30;99.90
13433;DHT22;6789;47.678;9.158;2023-03-12T11:59:42;10.30;99.90
13433;DHT22;6789;47.678;9.158;2023-03-12T12:37:58;10.90;99.90
13433;DHT22;6789;47.678;9.158;2023-03-12T12:48:34;11.70;99.90
13433;DHT22;6789;47.678;9.158;2023-03-12T12:53:40;11.90;99.90
13433;DHT22;6789;47.678;9.158;2023-03-12T12:59:08;12.10;99.90
13433;DHT22;6789;47.678;9.158;2023-03-12T13:04:26;12.60;99.90
13433;DHT22;6789;47.678;9.158;2023-03-12T13:09:40;12.60;99.90
13433;DHT22;6789;47.678;9.158;2023-03-12T13:14:39;12.70;99.90
13433;DHT22;6789;47.678;9.158;2023-03-12T13:19:38;12.80;99.90
13433;DHT22;6789;47.678;9.158;2023-03-12T13:29:37;12.20;99.90
13433;DHT22;6789;47.678;9.158;2023-03-12T13:34:44;12.10;99.90
13433;DHT22;6789;47.678;9.158;2023-03-12T13:39:37;12.50;99.90
13433;DHT22;6789;47.678;9.158;2023-03-12T13:44:37;13.00;99.90
13433;DHT22;6789;47.678;9.158;2023-03-12T13:54:45;13.00;99.90
13433;DHT22;6789;47.678;9.158;2023-03-12T13:59:43;13.00;99.90
13433;DHT22;6789;47.678;9.158;2023-03-12T14:04:45;13.00;99.90
13433;DHT22;6789;47.678;9.158;2023-03-12T14:10:16;12.70;99.90
13433;DHT22;6789;47.678;9.158;2023-03-12T14:15:43;12.50;99.90
13433;DHT22;6789;47.678;9.158;2023-03-12T14:20:40;12.50;99.90
13433;DHT22;6789;47.678;9.158;2023-03-12T14:25:45;12.80;99.90
13433;DHT22;6789;47.678;9.158;2023-03-12T14:30:55;13.00;99.90
13433;DHT22;6789;47.678;9.158;2023-03-12T14:35:56;13.10;99.90
13433;DHT22;6789;47.678;9.158;2023-03-12T14:41:06;12.80;99.90
13433;DHT22;6789;47.678;9.158;2023-03-12T14:46:17;13.00;99.90
13433;DHT22;6789;47.678;9.158;2023-03-12T14:51:29;13.10;99.90
13433;DHT22;6789;47.678;9.158;2023-03-12T14:56:32;13.10;99.90
13433;DHT22;6789;47.678;9.158;2023-03-12T15:01:30;13.20;99.90
13433;DHT22;6789;47.678;9.158;2023-03-12T15:06:44;13.20;99.90
13433;DHT22;6789;47.678;9.158;2023-03-12T15:11:38;13.20;99.90
13433;DHT22;6789;47.678;9.158;2023-03-12T15:16:30;12.80;99.90
13433;DHT22;6789;47.678;9.158;2023-03-12T15:21:22;12.80;99.90
13433;DHT22;6789;47.678;9.158;2023-03-12T15:26:27;12.60;99.90
13433;DHT22;6789;47.678;9.158;2023-03-12T15:31:22;12.60;99.90
13433;DHT22;6789;47.678;9.158;2023-03-12T15:36:23;12.80;99.90
13433;DHT22;6789;47.678;9.158;2023-03-12T15:41:47;12.80;99.90
13433;DHT22;6789;47.678;9.158;2023-03-12T15:46:50;12.70;99.90
13433;DHT22;6789;47.678;9.158;2023-03-12T15:57:49;12.80;99.90
13433;DHT22;6789;47.678;9.158;2023-03-12T16:03:35;12.70;99.90
13433;DHT22;6789;47.678;9.158;2023-03-12T16:08:26;12.50;99.90
13433;DHT22;6789;47.678;9.158;2023-03-12T16:13:32;12.50;99.90
13433;DHT22;6789;47.678;9.158;2023-03-12T16:18:24;12.50;99.90
13433;DHT22;6789;47.678;9.158;2023-03-12T16:23:16;12.30;99.90
13433;DHT22;6789;47.678;9.158;2023-03-12T16:28:12;12.00;99.90
13433;DHT22;6789;47.678;9.158;2023-03-12T16:33:06;12.00;99.90
13433;DHT22;6789;47.678;9.158;2023-03-12T16:38:00;11.80;99.90
13433;DHT22;6789;47.678;9.158;2023-03-12T16:42:53;11.80;99.90
13433;DHT22;6789;47.678;9.158;2023-03-12T16:47:53;11.60;99.90
13433;DHT22;6789;47.678;9.158;2023-03-12T16:52:50;11.50;99.90
13433;DHT22;6789;47.678;9.158;2023-03-12T16:58:09;11.50;99.90
13433;DHT22;6789;47.678;9.158;2023-03-12T17:03:01;11.40;99.90
13433;DHT22;6789;47.678;9.158;2023-03-12T17:07:56;11.30;99.90
13433;DHT22;6789;47.678;9.158;2023-03-12T17:12:49;11.20;99.90
13433;DHT22;6789;47.678;9.158;2023-03-12T17:17:42;11.10;99.90
13433;DHT22;6789;47.678;9.158;2023-03-12T17:22:35;11.00;99.90
13433;DHT22;6789;47.678;9.158;2023-03-12T17:27:41;10.90;99.90
13433;DHT22;6789;47.678;9.158;2023-03-12T17:32:47;10.80;99.90
13433;DHT22;6789;47.678;9.158;2023-03-12T17:37:53;10.70;99.90
13433;DHT22;6789;47.678;9.158;2023-03-12T17:42:46;10.50;99.90
13433;DHT22;6789;47.678;9.158;2023-03-12T17:47:39;10.40;99.90
13433;DHT22;6789;47.678;9.158;2023-03-12T17:52:39;10.20;99.90
13433;DHT22;6789;47.678;9.158;2023-03-12T17:57:31;10.20;99.90
13433;DHT22;6789;47.678;9.158;2023-03-12T18:02:23;10.20;99.90
13433;DHT22;6789;47.678;9.158;2023-03-12T18:07:16;10.00;99.90
13433;DHT22;6789;47.678;9.158;2023-03-12T18:12:09;9.90;99.90
13433;DHT22;6789;47.678;9.158;2023-03-12T18:17:02;9.80;99.90
13433;DHT22;6789;47.678;9.158;2023-03-12T18:22:01;9.70;99.90
13433;DHT22;6789;47.678;9.158;2023-03-12T18:26:54;9.70;99.90
13433;DHT22;6789;47.678;9.158;2023-03-12T18:31:47;9.60;99.90
13433;DHT22;6789;47.678;9.158;2023-03-12T18:36:39;9.50;99.90
13433;DHT22;6789;47.678;9.158;2023-03-12T18:41:32;9.50;99.90
13433;DHT22;6789;47.678;9.158;2023-03-12T18:46:24;9.40;99.90
13433;DHT22;6789;47.678;9.158;2023-03-12T18:51:16;9.30;99.90
13433;DHT22;6789;47.678;9.158;2023-03-12T18:56:08;9.30;99.90
13433;DHT22;6789;47.678;9.158;2023-03-12T19:00:59;9.20;99.90
13433;DHT22;6789;47.678;9.158;2023-03-12T19:06:08;9.10;99.90
13433;DHT22;6789;47.678;9.158;2023-03-12T19:11:04;9.10;99.90
13433;DHT22;6789;47.678;9.158;2023-03-12T19:16:07;9.20;99.90
13433;DHT22;6789;47.678;9.158;2023-03-12T19:21:15;9.00;99.90
13433;DHT22;6789;47.678;9.158;2023-03-12T19:26:09;8.80;99.90
13433;DHT22;6789;47.678;9.158;2023-03-12T19:31:03;8.70;99.90
13433;DHT22;6789;47.678;9.158;2023-03-12T19:35:56;8.60;99.90
13433;DHT22;6789;47.678;9.158;2023-03-12T19:40:52;8.60;99.90
13433;DHT22;6789;47.678;9.158;2023-03-12T19:45:46;8.50;99.90
13433;DHT22;6789;47.678;9.158;2023-03-12T19:50:46;8.40;99.90
13433;DHT22;6789;47.678;9.158;2023-03-12T19:55:38;8.40;99.90
13433;DHT22;6789;47.678;9.158;2023-03-12T20:00:30;8.40;99.90
13433;DHT22;6789;47.678;9.158;2023-03-12T20:05:22;8.30;99.90
13433;DHT22;6789;47.678;9.158;2023-03-12T20:10:14;8.20;99.90
13433;DHT22;6789;47.678;9.158;2023-03-12T20:15:06;8.20;99.90
13433;DHT22;6789;47.678;9.158;2023-03-12T20:19:59;8.20;99.90
13433;DHT22;6789;47.678;9.158;2023-03-12T20:24:52;8.10;99.90
13433;DHT22;6789;47.678;9.158;2023-03-12T20:29:44;8.10;99.90
13433;DHT22;6789;47.678;9.158;2023-03-12T20:34:41;8.00;99.90
13433;DHT22;6789;47.678;9.158;2023-03-12T20:39:32;7.90;99.90
13433;DHT22;6789;47.678;9.158;2023-03-12T20:44:24;7.90;99.90
13433;DHT22;6789;47.678;9.158;2023-03-12T20:49:16;7.80;99.90
13433;DHT22;6789;47.678;9.158;2023-03-12T20:54:08;7.90;99.90
13433;DHT22;6789;47.678;9.158;2023-03-12T20:59:00;7.90;99.90
13433;DHT22;6789;47.678;9.158;2023-03-12T21:03:56;7.80;99.90
13433;DHT22;6789;47.678;9.158;2023-03-12T21:08:48;7.80;99.90
13433;DHT22;6789;47.678;9.158;2023-03-12T21:13:53;7.80;99.90
13433;DHT22;6789;47.678;9.158;2023-03-12T21:18:46;7.90;99.90
13433;DHT22;6789;47.678;9.158;2023-03-12T21:23:38;7.90;99.90
13433;DHT22;6789;47.678;9.158;2023-03-12T21:28:32;8.00;99.90
13433;DHT22;6789;47.678;9.158;2023-03-12T21:33:25;8.10;99.90
13433;DHT22;6789;47.678;9.158;2023-03-12T21:38:16;8.20;99.90
13433;DHT22;6789;47.678;9.158;2023-03-12T21:43:08;8.30;99.90
13433;DHT22;6789;47.678;9.158;2023-03-12T21:48:00;8.40;99.90
13433;DHT22;6789;47.678;9.158;2023-03-12T21:52:52;8.40;99.90
13433;DHT22;6789;47.678;9.158;2023-03-12T21:57:44;8.50;99.90
13433;DHT22;6789;47.678;9.158;2023-03-12T22:02:36;8.60;99.90
13433;DHT22;6789;47.678;9.158;2023-03-12T22:07:28;8.70;99.90
13433;DHT22;6789;47.678;9.158;2023-03-12T22:12:20;8.70;99.90
13433;DHT22;6789;47.678;9.158;2023-03-12T22:17:12;8.70;99.90
13433;DHT22;6789;47.678;9.158;2023-03-12T22:22:04;8.70;99.90
13433;DHT22;6789;47.678;9.158;2023-03-12T22:26:55;8.70;99.90
13433;DHT22;6789;47.678;9.158;2023-03-12T22:31:47;8.80;99.90
13433;DHT22;6789;47.678;9.158;2023-03-12T22:36:39;8.80;99.90
13433;DHT22;6789;47.678;9.158;2023-03-12T22:41:31;8.90;99.90
13433;DHT22;6789;47.678;9.158;2023-03-12T22:46:24;8.80;99.90
13433;DHT22;6789;47.678;9.158;2023-03-12T22:51:17;8.80;99.90
13433;DHT22;6789;47.678;9.158;2023-03-12T22:56:11;8.90;99.90
13433;DHT22;6789;47.678;9.158;2023-03-12T23:01:15;8.90;99.90
13433;DHT22;6789;47.678;9.158;2023-03-12T23:06:26;8.80;99.90
13433;DHT22;6789;47.678;9.158;2023-03-12T23:11:20;8.90;99.90
13433;DHT22;6789;47.678;9.158;2023-03-12T23:16:18;8.90;99.90
13433;DHT22;6789;47.678;9.158;2023-03-12T23:21:18;8.90;99.90
13433;DHT22;6789;47.678;9.158;2023-03-12T23:26:30;9.10;99.90
13433;DHT22;6789;47.678;9.158;2023-03-12T23:31:22;9.10;99.90
13433;DHT22;6789;47.678;9.158;2023-03-12T23:36:16;9.00;99.90
13433;DHT22;6789;47.678;9.158;2023-03-12T23:41:12;9.00;99.90
13433;DHT22;6789;47.678;9.158;2023-03-12T23:46:12;9.10;99.90
13433;DHT22;6789;47.678;9.158;2023-03-12T23:51:14;9.10;99.90
13433;DHT22;6789;47.678;9.158;2023-03-12T23:56:14;9.00;99.90
